Time;durP1;ratioP1;P1;durP2;ratioP2;P2;SDS_P1;SDS_P2;PMS_P1;PMS_P2;Temp;Humidity;BMP_temperature;BMP_pressure;BME280_temperature;BME280_humidity;BME280_pressure;Samples;Min_cycle;Max_cycle;Signal;HPM_P1;HPM_P2
2024/02/23 00:01:44;;;;;;;0.10;0.10;;;8.40;78.60;;;;;;5072330;28;20508;-78
2024/02/23 00:04:11;;;;;;;0.10;0.10;;;8.30;99.90;;;;;;5056072;28;20040;-79
2024/02/23 00:06:37;;;;;;;0.10;0.10;;;8.30;99.90;;;;;;5080280;28;20031;-78
2024/02/23 00:09:04;;;;;;;0.10;0.10;;;8.20;99.90;;;;;;5080966;28;20032;-78
2024/02/23 00:11:32;;;;;;;0.10;0.10;;;8.10;99.90;;;;;;5070828;28;20388;-77
2024/02/23 00:13:58;;;;;;;0.10;0.10;;;8.10;99.90;;;;;;5066214;28;20466;-79
2024/02/23 00:16:24;;;;;;;0.10;0.10;;;8.10;99.90;;;;;;5072717;28;20039;-79
2024/02/23 00:18:50;;;;;;;0.10;0.10;;;8.10;99.90;;;;;;5071387;28;20044;-80
2024/02/23 00:21:16;;;;;;;0.10;0.10;;;8.00;99.90;;;;;;5068267;28;20036;-80
2024/02/23 00:23:42;;;;;;;0.10;0.10;;;8.00;99.90;;;;;;5050270;28;20044;-79
2024/02/23 00:26:09;;;;;;;0.10;0.10;;;8.00;99.90;;;;;;5049525;28;20033;-80
2024/02/23 00:28:35;;;;;;;0.10;0.10;;;8.00;99.90;;;;;;5078353;28;20035;-79
2024/02/23 00:31:01;;;;;;;0.10;0.10;;;7.80;99.90;;;;;;5080467;28;20028;-79
2024/02/23 00:33:27;;;;;;;0.10;0.10;;;7.70;99.90;;;;;;5080166;28;20032;-78
2024/02/23 00:35:53;;;;;;;0.32;0.32;;;7.70;99.90;;;;;;5063354;28;20534;-78
2024/02/23 00:38:19;;;;;;;0.10;0.10;;;7.60;99.90;;;;;;5079696;28;20464;-79
2024/02/23 00:40:46;;;;;;;0.10;0.10;;;7.60;99.90;;;;;;5054277;28;20057;-79
2024/02/23 00:43:12;;;;;;;0.10;0.10;;;7.50;99.90;;;;;;5081385;28;20054;-79
2024/02/23 00:45:38;;;;;;;0.17;0.15;;;7.40;99.90;;;;;;5060930;28;20198;-79
2024/02/23 00:48:04;;;;;;;0.57;0.57;;;7.20;99.90;;;;;;5078253;28;20032;-79
2024/02/23 00:50:31;;;;;;;0.13;0.13;;;7.20;99.90;;;;;;5081171;28;20032;-79
2024/02/23 00:52:57;;;;;;;0.10;0.10;;;7.10;99.90;;;;;;5064139;28;20028;-79
2024/02/23 00:55:25;;;;;;;0.85;0.85;;;7.10;99.90;;;;;;5079086;28;20024;-79
2024/02/23 00:57:51;;;;;;;0.20;0.20;;;7.20;99.90;;;;;;5070540;28;20044;-79
2024/02/23 01:00:17;;;;;;;0.82;0.82;;;7.20;99.90;;;;;;5077182;28;20029;-83
2024/02/23 01:02:44;;;;;;;0.10;0.10;;;7.10;99.90;;;;;;5068831;28;20037;-80
2024/02/23 01:05:10;;;;;;;1.55;0.50;;;7.10;99.90;;;;;;5068661;28;20039;-79
2024/02/23 01:07:36;;;;;;;0.20;0.20;;;7.10;99.90;;;;;;5076919;28;20047;-78
2024/02/23 01:10:03;;;;;;;0.50;0.50;;;7.00;99.90;;;;;;5080603;28;20036;-80
2024/02/23 01:12:30;;;;;;;0.10;0.10;;;7.00;99.90;;;;;;5076946;28;20047;-80
2024/02/23 01:14:56;;;;;;;0.17;0.17;;;7.00;99.90;;;;;;5063599;28;20040;-80
2024/02/23 01:17:22;;;;;;;0.17;0.17;;;6.90;99.90;;;;;;5051920;28;20378;-80
2024/02/23 01:19:49;;;;;;;0.30;0.30;;;6.80;99.90;;;;;;5066152;28;20043;-79
2024/02/23 01:22:15;;;;;;;0.63;0.63;;;6.80;99.90;;;;;;5081059;28;20036;-79
2024/02/23 01:24:41;;;;;;;0.45;0.45;;;6.70;99.90;;;;;;5068272;28;20038;-79
2024/02/23 01:27:08;;;;;;;0.10;0.10;;;6.60;99.90;;;;;;5051615;28;20040;-79
2024/02/23 01:29:34;;;;;;;0.20;0.20;;;6.60;99.90;;;;;;5062529;28;20036;-79
2024/02/23 01:32:01;;;;;;;0.75;0.63;;;6.70;99.90;;;;;;5080764;28;20028;-80
2024/02/23 01:34:27;;;;;;;0.10;0.10;;;6.80;99.90;;;;;;5062345;28;20052;-80
2024/02/23 01:36:53;;;;;;;0.28;0.28;;;7.00;99.90;;;;;;5060769;28;20031;-78
2024/02/23 01:39:19;;;;;;;0.10;0.10;;;7.10;99.90;;;;;;5080444;28;20040;-79
2024/02/23 01:41:46;;;;;;;0.10;0.10;;;7.20;99.90;;;;;;5077410;28;20063;-79
2024/02/23 01:44:12;;;;;;;0.10;0.10;;;7.00;99.90;;;;;;5069406;28;20397;-79
2024/02/23 01:46:39;;;;;;;0.15;0.15;;;6.60;1.00;;;;;;5076077;28;20043;-77
2024/02/23 01:49:07;;;;;;;0.10;0.10;;;6.20;1.00;;;;;;5077874;28;20036;-78
2024/02/23 01:51:34;;;;;;;0.10;0.10;;;6.10;1.00;;;;;;5076102;28;20517;-78
2024/02/23 01:54:00;;;;;;;0.10;0.10;;;5.90;1.00;;;;;;5064838;28;20032;-78
2024/02/23 01:56:27;;;;;;;0.10;0.10;;;5.80;1.00;;;;;;5057459;28;20246;-78
2024/02/23 01:58:55;;;;;;;0.10;0.10;;;5.80;1.00;;;;;;5069473;28;20028;-77
2024/02/23 02:01:21;;;;;;;0.10;0.10;;;5.70;1.00;;;;;;5071833;28;20036;-80
2024/02/23 02:03:47;;;;;;;0.10;0.10;;;5.70;1.00;;;;;;5076875;28;20044;-77
2024/02/23 02:06:13;;;;;;;0.10;0.10;;;5.70;1.00;;;;;;5078638;28;20025;-78
2024/02/23 02:08:40;;;;;;;0.20;0.20;;;5.70;1.00;;;;;;5076858;28;20032;-79
2024/02/23 02:11:06;;;;;;;0.10;0.10;;;5.80;1.00;;;;;;5077859;28;20039;-79
2024/02/23 02:13:32;;;;;;;0.10;0.10;;;5.80;99.90;;;;;;5076996;28;20028;-79
2024/02/23 02:16:00;;;;;;;0.10;0.10;;;5.80;99.90;;;;;;5078161;28;20043;-79
2024/02/23 02:18:27;;;;;;;0.10;0.10;;;5.70;99.90;;;;;;5057132;28;20066;-79
2024/02/23 02:20:57;;;;;;;0.10;0.10;;;5.70;99.90;;;;;;5078763;28;20028;-78
2024/02/23 02:23:24;;;;;;;0.28;0.28;;;5.60;99.90;;;;;;5059428;28;20066;-81
2024/02/23 02:25:54;;;;;;;0.10;0.10;;;5.60;99.90;;;;;;5052427;28;20037;-79
2024/02/23 02:28:21;;;;;;;0.10;0.10;;;5.60;99.90;;;;;;5059618;28;20047;-82
2024/02/23 02:30:48;;;;;;;0.20;0.20;;;5.50;99.90;;;;;;5070508;28;20052;-78
2024/02/23 02:33:14;;;;;;;0.10;0.10;;;5.50;99.90;;;;;;5078412;28;20028;-79
2024/02/23 02:35:40;;;;;;;0.10;0.10;;;5.40;99.90;;;;;;5048480;28;20243;-78
2024/02/23 02:38:06;;;;;;;0.10;0.10;;;5.40;1.00;;;;;;5063534;28;20032;-80
2024/02/23 02:40:32;;;;;;;0.30;0.30;;;5.40;1.00;;;;;;5064861;28;20729;-82
2024/02/23 02:42:59;;;;;;;0.10;0.10;;;5.40;1.00;;;;;;5077206;28;20032;-79
2024/02/23 02:45:25;;;;;;;0.10;0.10;;;5.40;1.00;;;;;;5075830;28;20063;-82
2024/02/23 02:47:51;;;;;;;0.20;0.20;;;5.40;1.00;;;;;;5081977;28;20036;-80
2024/02/23 02:50:17;;;;;;;0.20;0.20;;;5.50;1.00;;;;;;5052023;28;20056;-79
2024/02/23 02:52:43;;;;;;;0.10;0.10;;;5.60;1.00;;;;;;5063427;28;20032;-78
2024/02/23 02:55:09;;;;;;;0.10;0.10;;;5.60;99.90;;;;;;5079309;28;20032;-79
2024/02/23 02:57:36;;;;;;;0.10;0.10;;;5.60;99.90;;;;;;5062402;28;20147;-79
2024/02/23 03:00:05;;;;;;;0.10;0.10;;;5.60;99.90;;;;;;5057843;28;20048;-80
2024/02/23 03:02:31;;;;;;;2.15;1.08;;;5.60;99.90;;;;;;5065662;28;20033;-80
2024/02/23 03:04:58;;;;;;;0.17;0.17;;;5.70;99.90;;;;;;5061031;28;20040;-78
2024/02/23 03:07:24;;;;;;;3.33;0.73;;;5.80;99.90;;;;;;5052108;28;20041;-80
2024/02/23 03:09:50;;;;;;;0.10;0.10;;;5.90;99.90;;;;;;5064699;28;20040;-80
2024/02/23 03:12:17;;;;;;;0.47;0.47;;;5.90;99.90;;;;;;5062053;28;20036;-79
2024/02/23 03:14:44;;;;;;;0.10;0.10;;;5.90;99.90;;;;;;5077672;28;20043;-79
2024/02/23 03:17:10;;;;;;;0.10;0.10;;;6.00;99.90;;;;;;5078232;28;20374;-78
2024/02/23 03:19:37;;;;;;;4.05;1.00;;;6.00;99.90;;;;;;5078166;28;20473;-79
2024/02/23 03:22:03;;;;;;;0.10;0.10;;;6.00;99.90;;;;;;5078839;28;20334;-79
2024/02/23 03:24:30;;;;;;;0.10;0.10;;;5.90;99.90;;;;;;5065649;28;20028;-79
2024/02/23 03:26:56;;;;;;;0.10;0.10;;;5.80;99.90;;;;;;5078189;28;20028;-78
2024/02/23 03:29:29;;;;;;;0.10;0.10;;;5.80;99.90;;;;;;5073973;28;20378;-78
2024/02/23 03:31:55;;;;;;;0.10;0.10;;;5.80;99.90;;;;;;5073593;28;20043;-80
2024/02/23 03:34:22;;;;;;;0.13;0.13;;;5.70;99.90;;;;;;5065354;28;20036;-79
2024/02/23 03:36:48;;;;;;;0.10;0.10;;;5.70;99.90;;;;;;5077999;28;20028;-79
2024/02/23 03:39:14;;;;;;;0.20;0.20;;;5.70;99.90;;;;;;5055430;28;20114;-78
2024/02/23 03:41:40;;;;;;;0.30;0.30;;;5.70;99.90;;;;;;5076913;28;20705;-78
2024/02/23 03:44:07;;;;;;;0.17;0.17;;;5.60;99.90;;;;;;5080357;28;20047;-79
2024/02/23 03:46:34;;;;;;;0.10;0.10;;;5.60;99.90;;;;;;5058071;28;20043;-79
2024/02/23 03:49:01;;;;;;;0.10;0.10;;;5.50;99.90;;;;;;5050791;28;20042;-78
2024/02/23 03:51:27;;;;;;;0.25;0.25;;;5.40;99.90;;;;;;5081730;28;20043;-81
2024/02/23 03:53:53;;;;;;;0.65;0.45;;;5.40;99.90;;;;;;5072017;28;20031;-79
2024/02/23 03:56:19;;;;;;;0.10;0.10;;;5.40;99.90;;;;;;5063146;28;20516;-78
2024/02/23 03:58:45;;;;;;;0.10;0.10;;;5.40;99.90;;;;;;5081548;28;20033;-79
2024/02/23 04:01:11;;;;;;;0.43;0.43;;;5.40;99.90;;;;;;5072405;28;20465;-79
2024/02/23 04:03:37;;;;;;;0.10;0.10;;;5.40;99.90;;;;;;5062707;28;20047;-79
2024/02/23 04:06:04;;;;;;;0.10;0.10;;;5.40;99.90;;;;;;5082204;28;20028;-79
2024/02/23 04:08:31;;;;;;;0.10;0.10;;;5.30;99.90;;;;;;5063030;28;20519;-79
2024/02/23 04:10:57;;;;;;;0.10;0.10;;;5.20;1.00;;;;;;5062682;28;20045;-79
2024/02/23 04:13:24;;;;;;;0.43;0.43;;;5.20;1.00;;;;;;5078507;28;20034;-79
2024/02/23 04:15:50;;;;;;;0.75;0.75;;;5.20;1.00;;;;;;5054279;28;20048;-79
2024/02/23 04:18:16;;;;;;;1.13;0.85;;;5.10;1.00;;;;;;5062748;28;20036;-79
2024/02/23 04:20:42;;;;;;;0.10;0.10;;;5.00;1.00;;;;;;5079704;28;20044;-79
2024/02/23 04:23:08;;;;;;;0.50;0.50;;;5.00;1.00;;;;;;5069713;28;20473;-78
2024/02/23 04:25:34;;;;;;;0.45;0.40;;;4.90;1.00;;;;;;5066884;28;20393;-78
2024/02/23 04:28:00;;;;;;;0.10;0.10;;;4.90;1.00;;;;;;5084036;28;20032;-79
2024/02/23 04:30:27;;;;;;;0.10;0.10;;;4.90;1.00;;;;;;5055577;28;20046;-80
2024/02/23 04:32:53;;;;;;;0.10;0.10;;;4.80;1.00;;;;;;5080489;28;20040;-80
2024/02/23 04:35:19;;;;;;;0.35;0.30;;;4.80;1.00;;;;;;5081682;28;20036;-79
2024/02/23 04:37:45;;;;;;;0.20;0.20;;;4.80;1.00;;;;;;5069954;28;20036;-79
2024/02/23 04:40:12;;;;;;;0.28;0.28;;;4.70;1.00;;;;;;5083867;28;20036;-79
2024/02/23 04:42:38;;;;;;;0.10;0.10;;;4.70;1.00;;;;;;5065362;28;20397;-81
2024/02/23 04:45:05;;;;;;;1.80;0.85;;;4.70;1.00;;;;;;5060774;28;20033;-79
2024/02/23 04:47:32;;;;;;;0.10;0.10;;;4.60;1.00;;;;;;5056855;28;20032;-79
2024/02/23 04:49:59;;;;;;;0.10;0.10;;;4.80;1.00;;;;;;5055973;28;20059;-79
2024/02/23 04:52:25;;;;;;;0.38;0.38;;;4.90;1.00;;;;;;5081020;28;20024;-82
2024/02/23 04:54:51;;;;;;;0.10;0.10;;;4.90;1.00;;;;;;5061385;28;20045;-79
2024/02/23 04:57:17;;;;;;;0.10;0.10;;;5.10;99.90;;;;;;5073213;28;20377;-79
2024/02/23 04:59:43;;;;;;;0.10;0.10;;;5.10;99.90;;;;;;5068773;28;20058;-78
2024/02/23 05:02:10;;;;;;;0.25;0.25;;;5.10;99.90;;;;;;5060811;28;20040;-79
2024/02/23 05:04:36;;;;;;;0.63;0.63;;;5.30;99.90;;;;;;5078181;28;20035;-79
2024/02/23 05:07:02;;;;;;;0.10;0.10;;;5.30;99.90;;;;;;5080257;28;20036;-79
2024/02/23 05:09:29;;;;;;;0.55;0.55;;;5.20;99.90;;;;;;5052915;28;20378;-82
2024/02/23 05:11:55;;;;;;;0.20;0.20;;;5.20;99.90;;;;;;5065233;28;20145;-80
2024/02/23 05:14:21;;;;;;;0.88;0.88;;;5.20;99.90;;;;;;5076174;28;20028;-79
2024/02/23 05:16:47;;;;;;;0.10;0.10;;;5.10;99.90;;;;;;5079854;28;20031;-80
2024/02/23 05:19:13;;;;;;;0.10;0.10;;;5.20;99.90;;;;;;5082804;28;20035;-78
2024/02/23 05:21:39;;;;;;;0.10;0.10;;;5.30;99.90;;;;;;5078221;28;20028;-79
2024/02/23 05:24:06;;;;;;;0.10;0.10;;;5.30;99.90;;;;;;5066156;28;20036;-78
2024/02/23 05:26:32;;;;;;;0.10;0.10;;;5.20;99.90;;;;;;5082139;28;20047;-79
2024/02/23 05:29:00;;;;;;;0.13;0.13;;;5.10;99.90;;;;;;5079743;28;20378;-77
2024/02/23 05:31:45;;;;;;;0.20;0.20;;;5.00;99.90;;;;;;5075280;28;20378;-81
2024/02/23 05:34:11;;;;;;;0.75;0.75;;;5.00;99.90;;;;;;5077225;28;20032;-78
2024/02/23 05:36:37;;;;;;;0.10;0.10;;;5.00;99.90;;;;;;5060879;28;20036;-78
2024/02/23 05:39:03;;;;;;;0.10;0.10;;;5.10;99.90;;;;;;5051928;28;20043;-77
2024/02/23 05:41:29;;;;;;;4.95;1.95;;;5.10;99.90;;;;;;5060175;28;20067;-80
2024/02/23 05:43:56;;;;;;;0.10;0.10;;;5.20;99.90;;;;;;5075181;28;20040;-77
2024/02/23 05:46:22;;;;;;;0.10;0.10;;;5.40;99.90;;;;;;5069312;28;20094;-77
2024/02/23 05:48:48;;;;;;;0.10;0.10;;;5.40;99.90;;;;;;5080825;28;20033;-78
2024/02/23 05:51:14;;;;;;;0.10;0.10;;;5.50;99.90;;;;;;5081786;28;20510;-79
2024/02/23 05:53:41;;;;;;;0.10;0.10;;;5.50;99.90;;;;;;5078275;28;20039;-78
2024/02/23 05:56:07;;;;;;;0.10;0.10;;;5.60;99.90;;;;;;5050730;28;20040;-77
2024/02/23 05:58:34;;;;;;;0.10;0.10;;;5.60;99.90;;;;;;5044249;28;20044;-77
2024/02/23 06:01:00;;;;;;;0.43;0.43;;;5.60;99.90;;;;;;5052775;28;20049;-77
2024/02/23 06:03:26;;;;;;;0.10;0.10;;;5.60;99.90;;;;;;5080615;28;20028;-77
2024/02/23 06:05:54;;;;;;;0.10;0.10;;;5.60;99.90;;;;;;5079701;28;20029;-77
2024/02/23 06:08:20;;;;;;;0.88;0.75;;;5.50;99.90;;;;;;5082870;28;20338;-77
2024/02/23 06:10:46;;;;;;;0.28;0.25;;;5.50;99.90;;;;;;5077484;28;20048;-78
2024/02/23 06:13:12;;;;;;;0.10;0.10;;;5.60;99.90;;;;;;5058272;28;20472;-77
2024/02/23 06:15:39;;;;;;;0.32;0.32;;;5.60;99.90;;;;;;5067134;28;20035;-77
2024/02/23 06:18:05;;;;;;;0.30;0.30;;;5.60;99.90;;;;;;5068315;28;20055;-77
2024/02/23 06:20:31;;;;;;;0.20;0.20;;;5.70;99.90;;;;;;5082749;28;20054;-81
2024/02/23 06:22:58;;;;;;;0.10;0.10;;;5.70;99.90;;;;;;5067603;28;20805;-78
2024/02/23 06:25:24;;;;;;;0.10;0.10;;;5.70;99.90;;;;;;5083616;28;20439;-77
2024/02/23 06:27:51;;;;;;;0.10;0.10;;;5.70;99.90;;;;;;5069182;28;20039;-76
2024/02/23 06:30:17;;;;;;;0.40;0.40;;;5.70;99.90;;;;;;5066695;28;20389;-77
2024/02/23 06:32:45;;;;;;;1.38;1.08;;;5.70;99.90;;;;;;5080204;28;20033;-78
2024/02/23 06:35:12;;;;;;;0.47;0.47;;;5.70;99.90;;;;;;5054517;28;20040;-77
2024/02/23 06:37:38;;;;;;;0.20;0.20;;;5.70;99.90;;;;;;5080013;28;20028;-77
2024/02/23 06:40:05;;;;;;;0.10;0.10;;;5.70;99.90;;;;;;5069952;28;20051;-76
2024/02/23 06:42:32;;;;;;;0.10;0.10;;;5.70;99.90;;;;;;5075365;28;20067;-77
2024/02/23 06:44:58;;;;;;;0.10;0.10;;;5.70;99.90;;;;;;5068305;28;20059;-77
2024/02/23 06:47:24;;;;;;;1.00;0.90;;;5.70;99.90;;;;;;5078973;28;20033;-77
2024/02/23 06:49:51;;;;;;;0.15;0.15;;;5.80;99.90;;;;;;5077513;28;20029;-76
2024/02/23 06:52:18;;;;;;;0.10;0.10;;;5.80;99.90;;;;;;5077517;28;20044;-79
2024/02/23 06:54:45;;;;;;;0.10;0.10;;;5.80;99.90;;;;;;5078860;28;20370;-77
2024/02/23 06:57:11;;;;;;;0.10;0.10;;;5.80;99.90;;;;;;5081021;28;20044;-77
2024/02/23 06:59:37;;;;;;;0.20;0.20;;;5.80;99.90;;;;;;5076841;28;20043;-77
2024/02/23 07:02:04;;;;;;;0.20;0.20;;;5.80;99.90;;;;;;5078078;28;20122;-76
2024/02/23 07:04:30;;;;;;;0.10;0.10;;;5.80;99.90;;;;;;5076364;28;20032;-76
2024/02/23 07:06:56;;;;;;;0.10;0.10;;;5.80;99.90;;;;;;5079296;28;20051;-77
2024/02/23 07:09:22;;;;;;;0.10;0.10;;;5.80;99.90;;;;;;5079402;28;20365;-77
2024/02/23 07:11:48;;;;;;;0.10;0.10;;;5.80;99.90;;;;;;5079440;28;20055;-77
2024/02/23 07:14:16;;;;;;;0.10;0.10;;;5.80;99.90;;;;;;5080908;28;20032;-78
2024/02/23 07:16:43;;;;;;;0.10;0.10;;;5.90;99.90;;;;;;5061354;28;20043;-77
2024/02/23 07:19:09;;;;;;;4.15;0.90;;;5.90;99.90;;;;;;5064168;28;20052;-78
2024/02/23 07:21:35;;;;;;;0.10;0.10;;;5.80;99.90;;;;;;5085313;28;20027;-78
2024/02/23 07:24:01;;;;;;;0.10;0.10;;;5.80;99.90;;;;;;5079933;28;20039;-79
2024/02/23 07:26:30;;;;;;;0.55;0.32;;;5.70;99.90;;;;;;5063430;28;20052;-78
2024/02/23 07:28:57;;;;;;;0.20;0.20;;;5.60;99.90;;;;;;5072985;28;20063;-77
2024/02/23 07:31:23;;;;;;;0.20;0.20;;;5.50;99.90;;;;;;5083518;28;20040;-78
2024/02/23 07:33:49;;;;;;;0.40;0.40;;;5.60;99.90;;;;;;5068101;28;20127;-78
2024/02/23 07:36:15;;;;;;;0.65;0.38;;;5.50;99.90;;;;;;5070337;28;20048;-78
2024/02/23 07:38:43;;;;;;;0.10;0.10;;;5.50;99.90;;;;;;5069837;28;20401;-78
2024/02/23 07:41:10;;;;;;;0.10;0.10;;;5.60;99.90;;;;;;5065421;28;20056;-77
2024/02/23 07:43:36;;;;;;;0.52;0.52;;;5.60;99.90;;;;;;5067557;28;20043;-78
2024/02/23 07:46:04;;;;;;;0.20;0.20;;;5.60;99.90;;;;;;5072717;28;20358;-77
2024/02/23 07:48:30;;;;;;;0.17;0.17;;;5.80;99.90;;;;;;5070574;28;20041;-75
2024/02/23 07:50:57;;;;;;;0.10;0.10;;;5.90;99.90;;;;;;5082504;28;20033;-75
2024/02/23 07:53:23;;;;;;;0.20;0.20;;;6.00;98.90;;;;;;5079475;28;20048;-75
2024/02/23 07:55:49;;;;;;;0.20;0.20;;;6.10;94.70;;;;;;5070044;28;20037;-74
2024/02/23 07:58:15;;;;;;;0.20;0.20;;;6.20;84.00;;;;;;5078525;28;20036;-74
2024/02/23 08:00:41;;;;;;;0.10;0.10;;;6.40;33.40;;;;;;5079209;28;20032;-75
2024/02/23 08:03:08;;;;;;;0.20;0.20;;;6.70;1.00;;;;;;5081607;28;20028;-73
2024/02/23 08:05:34;;;;;;;0.30;0.30;;;6.80;1.00;;;;;;5080079;28;20028;-74
2024/02/23 08:08:01;;;;;;;0.22;0.22;;;6.80;1.00;;;;;;5080114;28;20135;-74
2024/02/23 08:10:27;;;;;;;0.20;0.20;;;6.80;1.00;;;;;;5081273;28;20055;-74
2024/02/23 08:12:53;;;;;;;0.10;0.10;;;6.90;1.00;;;;;;5081490;28;20826;-74
2024/02/23 08:15:19;;;;;;;0.10;0.10;;;7.00;1.00;;;;;;5078600;28;20040;-76
2024/02/23 08:17:45;;;;;;;0.32;0.32;;;6.90;1.00;;;;;;5079065;28;20350;-75
2024/02/23 08:20:12;;;;;;;0.15;0.15;;;6.90;1.00;;;;;;5083900;28;20380;-76
2024/02/23 08:22:38;;;;;;;1.50;0.98;;;6.90;1.00;;;;;;5081246;28;20062;-74
2024/02/23 08:25:04;;;;;;;1.48;0.52;;;6.90;1.00;;;;;;5083408;28;20029;-75
2024/02/23 08:27:30;;;;;;;0.10;0.10;;;6.90;1.00;;;;;;5077948;28;20035;-75
2024/02/23 08:29:57;;;;;;;2.17;1.10;;;6.90;1.00;;;;;;5083470;28;20023;-75
2024/02/23 08:32:23;;;;;;;0.30;0.30;;;7.00;1.00;;;;;;5078817;28;20051;-75
2024/02/23 08:34:50;;;;;;;0.20;0.20;;;7.10;1.00;;;;;;5069858;28;20051;-75
2024/02/23 08:37:16;;;;;;;0.98;0.82;;;7.20;1.00;;;;;;5081886;28;20032;-75
2024/02/23 08:39:42;;;;;;;0.30;0.30;;;7.20;1.00;;;;;;5064983;28;20040;-75
2024/02/23 08:42:09;;;;;;;0.10;0.10;;;7.30;1.00;;;;;;5085407;28;20478;-76
2024/02/23 08:44:36;;;;;;;0.32;0.32;;;7.40;1.00;;;;;;5078219;28;20028;-79
2024/02/23 08:47:02;;;;;;;0.35;0.35;;;7.40;1.00;;;;;;5086314;28;20033;-75
2024/02/23 08:49:28;;;;;;;0.10;0.10;;;7.40;1.00;;;;;;5092320;28;20094;-75
2024/02/23 08:51:56;;;;;;;0.28;0.28;;;7.30;1.00;;;;;;5080235;28;20055;-75
2024/02/23 08:54:22;;;;;;;0.10;0.10;;;7.40;1.00;;;;;;5091663;28;20016;-75
2024/02/23 08:56:48;;;;;;;1.00;0.75;;;7.40;1.00;;;;;;5080391;28;20039;-75
2024/02/23 08:59:14;;;;;;;0.10;0.10;;;7.40;1.00;;;;;;5083338;28;20059;-75
2024/02/23 09:01:40;;;;;;;0.10;0.10;;;7.30;1.00;;;;;;5069057;28;20040;-80
2024/02/23 09:04:07;;;;;;;0.82;0.82;;;7.40;1.00;;;;;;5084086;28;20036;-75
2024/02/23 09:06:33;;;;;;;0.50;0.15;;;7.50;1.00;;;;;;5082210;28;20036;-76
2024/02/23 09:08:59;;;;;;;0.22;0.20;;;7.50;1.00;;;;;;5062725;28;20044;-77
2024/02/23 09:11:26;;;;;;;0.10;0.10;;;7.40;1.00;;;;;;5083554;28;20374;-77
2024/02/23 09:13:52;;;;;;;0.85;0.50;;;7.50;1.00;;;;;;5068695;28;20040;-76
2024/02/23 09:16:18;;;;;;;0.15;0.15;;;7.70;1.00;;;;;;5083286;28;20031;-76
2024/02/23 09:18:45;;;;;;;0.35;0.35;;;7.90;1.00;;;;;;5090868;28;20366;-77
2024/02/23 09:21:11;;;;;;;0.10;0.10;;;8.00;1.00;;;;;;5090175;28;20028;-76
2024/02/23 09:23:37;;;;;;;0.28;0.28;;;8.20;1.00;;;;;;5068698;28;20036;-77
2024/02/23 09:26:09;;;;;;;0.20;0.20;;;8.30;1.00;;;;;;5077296;28;20051;-76
2024/02/23 09:28:36;;;;;;;0.10;0.10;;;8.20;1.00;;;;;;5078216;28;20032;-76
2024/02/23 09:31:03;;;;;;;0.80;0.50;;;8.30;1.00;;;;;;5079853;28;20393;-77
2024/02/23 09:33:29;;;;;;;0.65;0.65;;;8.60;1.00;;;;;;5077967;28;20381;-78
2024/02/23 09:35:55;;;;;;;0.20;0.20;;;8.70;99.90;;;;;;5080677;28;20414;-77
2024/02/23 09:38:24;;;;;;;0.68;0.55;;;8.80;1.00;;;;;;5082246;28;20040;-77
2024/02/23 09:40:51;;;;;;;0.20;0.20;;;9.00;1.00;;;;;;5062860;28;20409;-75
2024/02/23 09:43:19;;;;;;;0.10;0.10;;;9.10;99.90;;;;;;5080322;28;20042;-75
2024/02/23 09:45:46;;;;;;;1.48;0.57;;;9.20;99.90;;;;;;5079567;28;20036;-76
2024/02/23 09:48:16;;;;;;;0.30;0.30;;;9.40;99.90;;;;;;5078309;28;20536;-74
2024/02/23 09:50:44;;;;;;;0.10;0.10;;;9.30;99.90;;;;;;5080912;28;20032;-76
2024/02/23 09:53:13;;;;;;;0.10;0.10;;;9.20;99.90;;;;;;5079765;28;20028;-75
2024/02/23 09:55:39;;;;;;;0.20;0.20;;;9.20;99.90;;;;;;5079243;28;20039;-77
2024/02/23 09:58:08;;;;;;;0.40;0.40;;;9.30;99.90;;;;;;5078649;28;20040;-76
2024/02/23 10:00:38;;;;;;;0.30;0.30;;;9.20;99.90;;;;;;5083880;28;20044;-75
2024/02/23 10:03:05;;;;;;;0.10;0.10;;;9.20;99.90;;;;;;5076586;28;20060;-75
2024/02/23 10:05:31;;;;;;;0.10;0.10;;;9.00;99.90;;;;;;5082308;28;20040;-75
2024/02/23 10:07:58;;;;;;;0.25;0.17;;;8.90;99.90;;;;;;5077241;28;20036;-74
2024/02/23 10:10:34;;;;;;;0.20;0.20;;;9.10;99.90;;;;;;5077559;28;20040;-75
2024/02/23 10:13:01;;;;;;;0.10;0.10;;;9.20;99.90;;;;;;5071596;28;20200;-74
2024/02/23 10:15:33;;;;;;;0.10;0.10;;;9.40;99.90;;;;;;5078771;28;20032;-75
2024/02/23 10:17:59;;;;;;;0.30;0.30;;;9.30;99.90;;;;;;5075374;28;20386;-75
2024/02/23 10:20:25;;;;;;;0.10;0.10;;;9.40;99.90;;;;;;5081834;28;20032;-75
2024/02/23 10:22:53;;;;;;;0.10;0.10;;;9.30;99.90;;;;;;5075721;28;20037;-75
2024/02/23 10:25:20;;;;;;;0.15;0.15;;;9.60;99.90;;;;;;5053597;28;20056;-76
2024/02/23 10:27:46;;;;;;;0.10;0.10;;;9.80;99.90;;;;;;5071678;28;20644;-74
2024/02/23 10:30:14;;;;;;;0.10;0.10;;;10.00;99.90;;;;;;5077674;28;20043;-75
2024/02/23 10:32:41;;;;;;;0.82;0.55;;;10.40;99.90;;;;;;5077618;28;20040;-77
2024/02/23 10:35:13;;;;;;;0.20;0.20;;;10.60;99.90;;;;;;5081946;28;20024;-75
2024/02/23 10:37:47;;;;;;;0.10;0.10;;;10.70;99.90;;;;;;5079447;28;20032;-75
2024/02/23 10:40:15;;;;;;;9.85;1.05;;;10.80;99.90;;;;;;5073345;28;20039;-76
2024/02/23 10:42:47;;;;;;;0.40;0.40;;;10.50;99.90;;;;;;5074849;28;20044;-79
2024/02/23 10:45:18;;;;;;;0.40;0.40;;;10.20;99.90;;;;;;5069614;28;20104;-75
2024/02/23 10:47:45;;;;;;;0.10;0.10;;;10.20;99.90;;;;;;5075169;28;20082;-76
2024/02/23 10:50:16;;;;;;;0.10;0.10;;;10.20;99.90;;;;;;5076918;28;20037;-76
2024/02/23 10:52:43;;;;;;;0.10;0.10;;;10.20;99.90;;;;;;5062864;28;20052;-78
2024/02/23 10:55:09;;;;;;;0.17;0.17;;;10.10;99.90;;;;;;5082873;28;20024;-76
2024/02/23 10:57:36;;;;;;;1.55;0.63;;;10.00;99.90;;;;;;5082439;28;20039;-75
2024/02/23 11:00:09;;;;;;;2.88;0.60;;;9.90;99.90;;;;;;5077137;28;20329;-75
2024/02/23 11:02:44;;;;;;;0.17;0.17;;;9.60;99.90;;;;;;5072591;28;20473;-75
2024/02/23 11:05:12;;;;;;;8.50;0.45;;;9.70;99.90;;;;;;5080889;28;20469;-75
2024/02/23 11:07:39;;;;;;;1.35;0.20;;;10.00;99.90;;;;;;5067173;28;20048;-75
2024/02/23 11:10:06;;;;;;;0.30;0.30;;;10.10;99.90;;;;;;5081969;28;20374;-74
2024/02/23 11:12:34;;;;;;;2.20;0.85;;;10.00;99.90;;;;;;5060164;28;20047;-75
2024/02/23 11:15:01;;;;;;;1.85;0.47;;;10.00;99.90;;;;;;5080759;28;20039;-74
2024/02/23 11:17:32;;;;;;;0.10;0.10;;;10.00;99.90;;;;;;5081921;28;20028;-75
2024/02/23 11:19:58;;;;;;;5.20;0.47;;;10.00;99.90;;;;;;5079450;28;20067;-75
2024/02/23 11:22:29;;;;;;;4.05;0.68;;;9.90;99.90;;;;;;5085766;28;20033;-75
2024/02/23 11:25:06;;;;;;;0.10;0.10;;;9.70;99.90;;;;;;5066118;28;20025;-75
2024/02/23 11:27:34;;;;;;;0.20;0.20;;;9.60;99.90;;;;;;5080885;28;20037;-74
2024/02/23 11:30:08;;;;;;;0.38;0.38;;;9.70;99.90;;;;;;5078866;28;20036;-75
2024/02/23 11:32:47;;;;;;;4.57;1.00;;;9.70;99.90;;;;;;5079710;28;20032;-75
2024/02/23 11:35:21;;;;;;;0.20;0.20;;;9.70;99.90;;;;;;5079544;28;20488;-75
2024/02/23 11:37:58;;;;;;;0.10;0.10;;;9.80;99.90;;;;;;5082698;28;20382;-77
2024/02/23 11:40:26;;;;;;;0.10;0.10;;;10.00;99.90;;;;;;5075762;28;20033;-75
2024/02/23 11:42:54;;;;;;;0.10;0.10;;;10.20;99.90;;;;;;5078473;28;20039;-75
2024/02/23 11:45:21;;;;;;;0.10;0.10;;;10.40;99.90;;;;;;5076779;28;20032;-75
2024/02/23 11:47:47;;;;;;;0.10;0.10;;;10.50;99.90;;;;;;5068249;28;20036;-79
2024/02/23 11:50:15;;;;;;;1.35;1.00;;;10.60;99.90;;;;;;5079946;28;20412;-75
2024/02/23 11:52:41;;;;;;;0.25;0.25;;;10.70;99.90;;;;;;5079415;28;20040;-75
2024/02/23 11:55:10;;;;;;;0.10;0.10;;;10.70;99.90;;;;;;5077494;28;20233;-75
2024/02/23 11:57:38;;;;;;;0.10;0.10;;;10.70;99.90;;;;;;5077844;28;20036;-75
2024/02/23 12:00:10;;;;;;;0.20;0.20;;;10.90;99.90;;;;;;5070507;28;20039;-75
2024/02/23 12:02:36;;;;;;;0.30;0.25;;;10.90;99.90;;;;;;5057286;28;20492;-75
2024/02/23 12:05:03;;;;;;;0.30;0.30;;;10.70;99.90;;;;;;5063925;28;20024;-75
2024/02/23 12:07:30;;;;;;;0.45;0.40;;;10.70;99.90;;;;;;5081709;28;20049;-74
2024/02/23 12:09:57;;;;;;;5.18;0.50;;;10.70;99.90;;;;;;5080747;28;20150;-75
2024/02/23 12:12:25;;;;;;;0.10;0.10;;;10.50;99.90;;;;;;5078778;28;20036;-75
2024/02/23 12:14:51;;;;;;;0.28;0.28;;;10.30;99.90;;;;;;5078988;28;20032;-76
2024/02/23 12:17:18;;;;;;;0.17;0.17;;;10.20;99.90;;;;;;5083769;28;20020;-76
2024/02/23 12:19:44;;;;;;;1.75;1.27;;;10.10;99.90;;;;;;5086814;28;20028;-76
2024/02/23 12:22:12;;;;;;;0.45;0.45;;;10.00;99.90;;;;;;5082671;28;20033;-75
2024/02/23 12:24:40;;;;;;;0.38;0.38;;;10.10;99.90;;;;;;5088785;28;20123;-76
2024/02/23 12:27:06;;;;;;;0.10;0.10;;;10.40;99.90;;;;;;5087807;28;20119;-76
2024/02/23 12:29:33;;;;;;;0.10;0.10;;;10.60;99.90;;;;;;5087325;28;20035;-75
2024/02/23 12:32:06;;;;;;;0.17;0.17;;;10.90;99.90;;;;;;5082211;28;20039;-75
2024/02/23 12:34:32;;;;;;;0.20;0.20;;;11.10;99.90;;;;;;5079983;28;20039;-75
2024/02/23 12:36:59;;;;;;;0.20;0.20;;;11.00;99.90;;;;;;5076507;28;20043;-75
2024/02/23 12:39:26;;;;;;;0.30;0.30;;;10.80;99.90;;;;;;5068985;28;20037;-76
2024/02/23 12:41:52;;;;;;;0.75;0.32;;;10.70;99.90;;;;;;5086080;28;20477;-75
2024/02/23 12:44:19;;;;;;;0.10;0.10;;;10.50;99.90;;;;;;5086171;28;20039;-75
2024/02/23 12:46:45;;;;;;;0.10;0.10;;;10.60;99.90;;;;;;5086795;28;20020;-75
2024/02/23 12:49:11;;;;;;;0.50;0.50;;;10.70;99.90;;;;;;5090676;28;20035;-75
2024/02/23 12:51:37;;;;;;;0.10;0.10;;;10.70;99.90;;;;;;5084687;28;20043;-75
2024/02/23 12:54:04;;;;;;;1.33;1.23;;;10.50;99.90;;;;;;5076909;28;20037;-75
2024/02/23 12:56:30;;;;;;;1.55;0.50;;;10.60;99.90;;;;;;5065166;28;20047;-75